Latest Coastal Weather Observations for Low Isles

IDQ60701

Issued at 3:42 pm EST Wednesday 20 September 2017 (issued every 10 minutes, with the page automatically refreshed every 10 minutes)

About coastal observations | Map of coastal stations | Coastal observations for QLD | Marine services | Other Formats
Station Details ID: 031037 Name: LOW ISLES LIGHTHOUSE Lat: -16.38 Lon: 145.56 Height: 2.9 m
Data from the previous 72 hours. | See also: Recent months at Low Isles
Date/Time
EST
Temp
°C
Wind Pressure Rain since
9am
mm
Weather Cloud Vis
km
Sea
Height
m
Swell
Dir  Spd
kts
Gust
kts
hPa Trend Height
m
Period
s
Dir
20/03:30pm 27.4 SE 12 15 1013.7 - 0.0 - - - - - - -
20/03:00pm 27.8 SE 11 14 1013.7 - 0.0 - - - - - - -
20/02:30pm 28.2 SE 10 12 1014.3 - 0.0 - - - - - - -
20/02:00pm 27.2 SE 9 11 1014.6 - 0.0 - - - - - - -
20/01:30pm 27.2 SSE 10 12 1014.9 - 0.0 - - - - - - -
20/01:00pm 27.1 SSE 11 12 1015.4 - 0.0 - - - - - - -
20/12:30pm 27.2 SSE 9 10 1015.9 - 0.0 - - - - - - -
20/12:00pm 26.6 SSE 7 9 1016.1 - 0.0 - - - - - - -
20/11:30am 26.5 S 7 8 1016.6 - 0.0 - - - - - - -
20/11:00am 27.6 S 5 6 1017.1 - 0.0 - - - - - - -
20/10:30am 25.8 S 8 10 1017.3 - 0.0 - - - - - - -
20/10:00am 26.0 SSW 7 8 1017.5 - 0.0 - - - - - - -
20/09:30am 24.8 S 7 8 1017.6 - 0.0 - - - - - - -
20/09:00am 23.9 S 10 11 1017.6 - 5.8 Haze Partly cloudy 18 - - - -
20/08:30am 23.4 SSE 11 13 1017.7 - 5.8 - - - - - - -
20/08:00am 23.4 SSE 12 13 1017.6 - 5.8 - - - - - - -
20/07:30am 23.1 SSE 12 13 1017.3 - 5.8 - - - - - - -
20/07:00am 22.8 SSE 13 14 1016.9 - 5.8 - - - - - - -
20/06:30am 22.6 SSE 13 15 1016.3 - 5.8 - - - - - - -
20/06:00am 22.1 SSE 7 9 1016.1 - 5.6 - - - - - - -
20/05:30am 21.9 SSW 7 8 1016.3 - 5.6 - - - - - - -
20/05:00am 22.1 SSW 6 8 1016.2 - 5.6 - - - - - - -
20/04:30am 21.9 WSW 7 9 1016.2 - 5.6 - - - - - - -
20/04:00am 22.0 S 5 6 1016.3 - 5.6 - - - - - - -
20/03:30am 22.0 SE 9 10 1016.0 - 5.6 - - - - - - -
20/03:00am 21.7 SE 11 14 1016.1 - 4.8 - - - - - - -
20/02:30am 21.7 SSE 14 16 1016.4 - 4.6 - - - - - - -
20/02:00am 21.9 SE 15 19 1016.8 - 4.2 - - - - - - -
20/01:30am 22.0 SE 18 22 1016.8 - 4.0 - - - - - - -
20/01:00am 22.2 ESE 17 21 1017.1 - 3.0 - - - - - - -
20/12:30am 22.3 SE 15 19 1017.6 - 0.8 - - - - - - -
20/12:00am 23.4 S 16 18 1017.8 - 0.6 - - - - - - -
 
Date/Time
EST
Temp
°C
Wind Pressure Rain since
9am
mm
Weather Cloud Vis
km
Sea
Height
m
Swell
Dir  Spd
kts
Gust
kts
hPa Trend Height
m
Period
s
Dir
19/11:30pm 23.6 SSE 16 18 1018.1 - 0.6 - - - - - - -
19/11:00pm 23.7 SSE 17 19 1018.5 - 0.6 - - - - - - -
19/10:30pm 23.6 S 18 20 1018.5 - 0.6 - - - - - - -
19/10:00pm 23.6 SSE 19 21 1018.5 - 0.6 - - - - - - -
19/09:30pm 23.7 SSE 19 21 1018.3 - 0.6 - - - - - - -
19/09:00pm 23.7 SSE 21 24 1018.1 - 0.6 - - - - - - -
19/08:30pm 23.1 SSE 20 23 1017.9 - 0.6 - - - - - - -
19/08:00pm 23.3 SSE 20 23 1017.8 - 0.6 - - - - - - -
19/07:30pm 23.2 SSE 19 23 1017.3 - 0.6 - - - - - - -
19/07:00pm 23.3 SSE 21 25 1017.1 - 0.6 - - - - - - -
19/06:30pm 23.3 SSE 21 25 1016.7 - 0.6 - - - - - - -
19/06:00pm 23.6 SSE 19 22 1016.3 - 0.6 - - - - - - -
19/05:30pm 23.9 SSE 18 21 1016.0 - 0.6 - - - - - - -
19/05:00pm 23.9 SSE 18 21 1015.8 - 0.6 - - - - - - -
19/04:30pm 24.0 SSE 16 19 1015.7 - 0.6 - - - - - - -
19/04:00pm 24.1 SSE 15 16 1015.7 - 0.6 - - - - - - -
19/03:30pm 24.1 SSE 15 17 1015.6 - 0.6 - - - - - - -
19/03:00pm 24.2 SSE 15 17 1015.6 - 0.6 - - - - - - -
19/02:30pm 24.8 SSE 15 17 1015.7 - 0.6 - - - - - - -
19/02:00pm 25.0 SSE 15 16 1016.1 - 0.6 - - - - - - -
19/01:30pm 25.3 SSE 13 15 1016.6 - 0.6 - - - - - - -
19/01:00pm 24.8 SSE 14 15 1016.9 - 0.6 - - - - - - -
19/12:30pm 24.3 SSE 15 16 1017.5 - 0.6 - - - - - - -
19/12:00pm 24.3 SSE 13 15 1017.9 - 0.6 - - - - - - -
19/11:30am 24.5 SSE 14 16 1018.6 - 0.6 - - - - - - -
19/11:00am 24.0 SSE 15 17 1018.7 - 0.6 - - - - - - -
19/10:30am 23.4 SSE 15 16 1019.2 - 0.6 - - - - - - -
19/10:00am 23.3 S 14 15 1019.4 - 0.4 - - - - - - -
19/09:30am 23.4 S 13 15 1019.5 - 0.2 - - - - - - -
19/09:00am 23.4 S 13 14 1019.4 - 18.4 Rain Cloudy 6 - - - -
19/08:30am 23.2 SSE 12 13 1019.4 - 18.4 - - - - - - -
19/08:00am 24.0 SSE 13 14 1019.1 - 16.4 - - - - - - -
19/07:30am 23.7 SSE 12 13 1018.7 - 16.4 - - - - - - -
19/07:00am 23.5 SE 10 12 1018.4 - 16.4 - - - - - - -
19/06:30am 23.3 SSE 9 11 1018.0 - 16.4 - - - - - - -
19/06:00am 23.1 SE 9 11 1017.5 - 16.4 - - - - - - -
19/05:30am 23.0 SE 10 13 1017.1 - 16.4 - - - - - - -
19/05:00am 23.1 SE 9 12 1016.8 - 16.4 - - - - - - -
19/04:30am 23.0 SSE 12 15 1016.5 - 16.4 - - - - - - -
19/04:00am 22.9 SE 12 14 1016.4 - 16.4 - - - - - - -
19/03:30am 22.7 SE 11 14 1016.4 - 16.4 - - - - - - -
19/03:00am 22.6 SE 15 17 1016.4 - 16.4 - - - - - - -
19/02:30am 22.7 SE 14 16 1016.7 - 15.8 - - - - - - -
19/02:00am 22.5 SE 14 16 1017.0 - 15.8 - - - - - - -
19/01:30am 22.3 ESE 15 19 1017.3 - 11.0 - - - - - - -
19/01:00am 22.9 SE 11 15 1017.5 - 7.4 - - - - - - -
19/12:30am 22.7 SE 15 19 1017.8 - 7.0 - - - - - - -
19/12:00am 22.8 SE 14 18 1018.1 - 6.4 - - - - - - -
 
Date/Time
EST
Temp
°C
Wind Pressure Rain since
9am
mm
Weather Cloud Vis
km
Sea
Height
m
Swell
Dir  Spd
kts
Gust
kts
hPa Trend Height
m
Period
s
Dir
18/11:30pm 22.5 SE 15 19 1018.6 - 6.0 - - - - - - -
18/11:00pm 22.3 ESE 14 19 1018.8 - 5.0 - - - - - - -
18/10:30pm 22.8 SE 17 19 1018.9 - 4.0 - - - - - - -
18/10:00pm 22.7 SE 17 21 1019.0 - 3.6 - - - - - - -
18/09:30pm 22.9 ESE 18 22 1019.0 - 3.2 - - - - - - -
18/09:00pm 22.9 ESE 18 22 1018.8 - 2.6 - - - - - - -
18/08:30pm 22.8 SE 18 21 1018.7 - 2.6 - - - - - - -
18/08:00pm 22.9 SE 18 21 1018.5 - 2.6 - - - - - - -
18/07:30pm 23.1 SE 20 24 1018.2 - 1.6 - - - - - - -
18/07:00pm 23.8 SSE 16 18 1017.8 - 0.0 - - - - - - -
18/06:30pm 24.0 SE 18 21 1017.7 - 0.0 - - - - - - -
18/06:00pm 23.9 SE 19 22 1017.3 - 0.0 - - - - - - -
18/05:30pm 23.9 SE 18 21 1017.2 - 0.0 - - - - - - -
18/05:00pm 24.0 SE 20 23 1016.9 - 0.0 - - - - - - -
18/04:30pm 24.0 SE 18 21 1016.8 - 0.0 - - - - - - -
18/04:00pm 24.4 SE 18 23 1016.8 - 0.0 - - - - - - -
18/03:00pm 24.6 SE 20 23 1016.8 - 0.0 - - - - - - -
18/02:30pm 24.9 SE 19 22 1017.0 - 0.0 - - - - - - -
18/02:00pm 25.1 SSE 19 21 1017.3 - 0.0 - - - - - - -
18/01:30pm 25.3 SE 18 23 1017.7 - 0.0 - - - - - - -
18/01:00pm 25.1 SE 18 21 1018.0 - 0.0 - - - - - - -
18/12:30pm 26.0 SE 19 22 1018.4 - 0.0 - - - - - - -
18/12:00pm 26.3 SE 18 20 1018.7 - 0.0 - - - - - - -
18/11:30am 25.9 SE 19 22 1019.3 - 0.0 - - - - - - -
18/11:00am 26.4 SE 19 21 1019.6 - 0.0 - - - - - - -
18/10:30am 25.9 SE 20 23 1019.9 - 0.0 - - - - - - -
18/10:00am 25.6 SE 21 23 1019.9 - 0.0 - - - - - - -
18/09:30am 25.3 SE 20 23 1020.0 - 0.0 - - - - - - -
18/09:00am 25.5 SE 19 23 1019.9 - 0.0 Haze Mostly cloudy 8 - - - -
18/08:30am 24.3 SSE 15 17 1020.0 - 0.0 - - - - - - -
18/08:00am 23.8 S 14 17 1019.7 - 0.0 - - - - - - -
18/07:30am 23.5 SSE 15 16 1019.4 - 0.0 - - - - - - -
18/07:00am 23.3 SSE 15 16 1018.9 - 0.0 - - - - - - -
18/06:30am 23.3 SSE 16 18 1018.6 - 0.0 - - - - - - -
18/06:00am 23.0 S 14 16 1018.2 - 0.0 - - - - - - -
18/05:30am 23.0 S 16 18 1018.0 - 0.0 - - - - - - -
18/05:00am 22.8 S 15 17 1017.8 - 0.0 - - - - - - -
18/04:30am 22.9 SSE 17 19 1017.5 - 0.0 - - - - - - -
18/04:00am 23.1 SSE 16 18 1017.3 - 0.0 - - - - - - -
18/03:30am 22.8 S 16 18 1017.3 - 0.0 - - - - - - -
18/03:00am 22.8 SSE 15 18 1017.3 - 0.0 - - - - - - -
18/02:30am 23.3 SSE 16 18 1017.5 - 0.0 - - - - - - -
18/02:00am 23.4 SSE 16 19 1017.9 - 0.0 - - - - - - -
18/01:30am 23.5 SSE 16 18 1018.2 - 0.0 - - - - - - -
18/01:00am 23.6 SSE 15 18 1018.6 - 0.0 - - - - - - -
18/12:30am 24.1 SE 18 21 1018.8 - 0.0 - - - - - - -
18/12:00am 24.0 SSE 18 21 1019.2 - 0.0 - - - - - - -
 
Date/Time
EST
Temp
°C
Wind Pressure Rain since
9am
mm
Weather Cloud Vis
km
Sea
Height
m
Swell
Dir  Spd
kts
Gust
kts
hPa Trend Height
m
Period
s
Dir
17/11:30pm 24.0 SSE 18 20 1019.3 - 0.0 - - - - - - -
17/11:00pm 24.0 SSE 18 21 1019.5 - 0.0 - - - - - - -
17/10:30pm 24.2 SSE 20 24 1019.7 - 0.0 - - - - - - -
17/10:00pm 24.3 SSE 22 25 1019.8 - 0.0 - - - - - - -
17/09:30pm 24.4 SE 20 23 1019.7 - 0.0 - - - - - - -
17/09:00pm 24.4 SE 20 23 1019.5 - 0.0 - - - - - - -
17/08:30pm 24.4 SE 21 25 1019.3 - 0.0 - - - - - - -
17/08:00pm 24.3 SE 19 23 1018.9 - 0.0 - - - - - - -
17/07:30pm 24.3 SE 19 23 1018.7 - 0.0 - - - - - - -
17/07:00pm 24.2 SE 17 21 1018.3 - 0.0 - - - - - - -
17/06:30pm 24.2 SE 18 22 1017.9 - 0.0 - - - - - - -
17/06:00pm 24.4 SE 19 23 1017.5 - 0.0 - - - - - - -
17/05:30pm 24.5 SE 20 24 1017.2 - 0.0 - - - - - - -
17/05:00pm 24.8 SE 22 26 1017.0 - 0.0 - - - - - - -
17/04:30pm 25.2 SE 20 24 1016.9 - 0.0 - - - - - - -
17/04:00pm 25.7 ESE 19 24 1016.8 - 0.0 - - - - - - -

Other Formats:

Comma delimited format used in spreadsheet applications
http://www.bom.gov.au/fwo/IDQ60701/IDQ60701.94285.axf

JavaScript Object Notation format (JSON) in row-major order
http://www.bom.gov.au/fwo/IDQ60701/IDQ60701.94285.json